Time;durP1;ratioP1;P1;durP2;ratioP2;P2;SDS_P1;SDS_P2;PMS_P1;PMS_P2;Temp;Humidity;BMP_temperature;BMP_pressure;BME280_temperature;BME280_humidity;BME280_pressure;Samples;Min_cycle;Max_cycle;Signal;HPM_P1;HPM_P2
2022/06/11 00:01:44;;;;;;;9.30;6.13;;;18.40;99.90;;;;;;4968666;28;20237;-67
2022/06/11 00:04:16;;;;;;;6.83;5.53;;;18.50;99.90;;;;;;4979489;28;20365;-67
2022/06/11 00:06:47;;;;;;;6.03;5.50;;;18.50;99.90;;;;;;4973641;28;20780;-67
2022/06/11 00:09:17;;;;;;;5.90;5.27;;;18.40;99.90;;;;;;4973499;28;20252;-67
2022/06/11 00:11:47;;;;;;;8.63;5.87;;;18.30;99.90;;;;;;4974847;28;20232;-68
2022/06/11 00:14:15;;;;;;;6.37;5.60;;;18.30;99.90;;;;;;4972436;28;20239;-68
2022/06/11 00:16:44;;;;;;;7.37;6.50;;;18.40;99.90;;;;;;4973595;28;20277;-68
2022/06/11 00:19:12;;;;;;;7.70;6.47;;;18.30;99.90;;;;;;4973532;28;20359;-68
2022/06/11 00:21:43;;;;;;;7.67;6.10;;;18.40;99.90;;;;;;4973309;28;20633;-68
2022/06/11 00:24:12;;;;;;;8.60;6.77;;;18.40;99.90;;;;;;4985565;28;20248;-67
2022/06/11 00:26:43;;;;;;;6.90;6.23;;;18.50;99.90;;;;;;5011887;28;20313;-67
2022/06/11 00:29:13;;;;;;;7.33;5.90;;;18.40;99.90;;;;;;5012329;28;20238;-67
2022/06/11 00:31:41;;;;;;;9.63;6.13;;;18.30;99.90;;;;;;5012299;28;20251;-67
2022/06/11 00:34:10;;;;;;;9.03;6.27;;;18.30;99.90;;;;;;5015012;28;20238;-67
2022/06/11 00:36:39;;;;;;;7.77;6.23;;;18.20;99.90;;;;;;5015714;28;20733;-67
2022/06/11 00:39:09;;;;;;;6.80;6.07;;;18.10;99.90;;;;;;5015578;28;20583;-67
2022/06/11 00:41:41;;;;;;;7.33;6.17;;;18.10;99.90;;;;;;5017062;28;20219;-67
2022/06/11 00:44:12;;;;;;;6.50;5.80;;;18.10;99.90;;;;;;5015470;28;20254;-67
2022/06/11 00:46:53;;;;;;;6.93;5.63;;;18.10;99.90;;;;;;5015495;28;20559;-68
2022/06/11 00:49:32;;;;;;;7.63;6.83;;;18.00;99.90;;;;;;5015409;28;20275;-68
2022/06/11 00:52:13;;;;;;;6.70;5.90;;;18.00;99.90;;;;;;5010654;28;20301;-67
2022/06/11 00:54:44;;;;;;;5.60;5.10;;;18.10;99.90;;;;;;5009546;28;20298;-67
2022/06/11 00:57:14;;;;;;;9.30;6.10;;;18.00;99.90;;;;;;5020314;28;20753;-68
2022/06/11 00:59:48;;;;;;;6.20;5.57;;;18.10;99.90;;;;;;5007612;28;20239;-68
2022/06/11 01:02:16;;;;;;;7.17;5.07;;;18.10;99.90;;;;;;5014673;28;20233;-67
2022/06/11 01:04:50;;;;;;;6.07;5.47;;;18.00;99.90;;;;;;5015200;28;20749;-68
2022/06/11 01:07:42;;;;;;;7.03;5.83;;;18.00;99.90;;;;;;5014816;28;20310;-68
2022/06/11 01:10:32;;;;;;;5.87;5.33;;;17.90;99.90;;;;;;5012672;28;20232;-68
2022/06/11 01:13:13;;;;;;;8.00;7.20;;;17.90;99.90;;;;;;5014630;28;20233;-67
2022/06/11 01:15:47;;;;;;;6.27;5.53;;;17.90;99.90;;;;;;5014868;28;20272;-67
2022/06/11 01:18:25;;;;;;;6.30;5.67;;;17.90;99.90;;;;;;5015148;28;20230;-68
2022/06/11 01:21:02;;;;;;;6.30;5.70;;;18.00;99.90;;;;;;5017115;28;20722;-68
2022/06/11 01:24:14;;;;;;;7.60;6.00;;;18.00;99.90;;;;;;5015773;28;20236;-68
2022/06/11 01:27:25;;;;;;;7.57;6.60;;;17.90;99.90;;;;;;5011739;28;20730;-68
2022/06/11 01:29:59;;;;;;;7.33;6.60;;;17.90;99.90;;;;;;5008631;28;20624;-68
2022/06/11 01:32:36;;;;;;;10.83;6.77;;;17.90;99.90;;;;;;5014138;28;20231;-68
2022/06/11 01:35:21;;;;;;;9.07;7.30;;;18.10;99.90;;;;;;5015503;28;20626;-67
2022/06/11 01:37:53;;;;;;;7.00;6.30;;;18.10;99.90;;;;;;5012747;28;20242;-67
2022/06/11 01:40:30;;;;;;;9.27;6.93;;;18.10;99.90;;;;;;5014234;28;20236;-67
2022/06/11 01:43:02;;;;;;;8.50;7.70;;;18.00;99.90;;;;;;5014141;28;20278;-67
2022/06/11 01:45:35;;;;;;;7.23;6.43;;;18.10;99.90;;;;;;5028541;28;20227;-67
2022/06/11 01:48:05;;;;;;;8.83;7.70;;;18.10;99.90;;;;;;5014163;28;20284;-67
2022/06/11 01:50:39;;;;;;;8.83;8.00;;;18.20;99.90;;;;;;5014648;28;20235;-67
2022/06/11 01:53:29;;;;;;;7.17;6.50;;;18.20;99.90;;;;;;5013871;28;20231;-67
2022/06/11 01:56:22;;;;;;;7.30;6.60;;;18.10;99.90;;;;;;5015518;28;20266;-67
2022/06/11 01:59:12;;;;;;;8.33;7.63;;;18.10;99.90;;;;;;5007515;28;20630;-68
2022/06/11 02:01:56;;;;;;;10.10;9.10;;;18.10;99.90;;;;;;5014527;28;20238;-68
2022/06/11 02:04:37;;;;;;;10.27;7.80;;;18.10;99.90;;;;;;5014514;28;20235;-68
2022/06/11 02:07:15;;;;;;;9.53;6.67;;;18.00;99.90;;;;;;5014176;28;20319;-68
2022/06/11 02:09:57;;;;;;;8.23;7.50;;;17.90;99.90;;;;;;5012842;28;20232;-68
2022/06/11 02:12:30;;;;;;;8.70;7.83;;;17.90;99.90;;;;;;5015007;28;20261;-67
2022/06/11 02:15:03;;;;;;;9.53;8.47;;;17.90;99.90;;;;;;5013954;28;20277;-67
2022/06/11 02:17:37;;;;;;;9.87;8.77;;;17.90;99.90;;;;;;5014096;28;20234;-67
2022/06/11 02:20:10;;;;;;;9.70;8.87;;;17.80;99.90;;;;;;5013687;28;20309;-67
2022/06/11 02:22:44;;;;;;;11.20;9.20;;;17.90;99.90;;;;;;5013548;28;20617;-67
2022/06/11 02:25:16;;;;;;;13.60;9.70;;;17.80;99.90;;;;;;5014016;28;20641;-67
2022/06/11 02:27:47;;;;;;;9.17;8.17;;;17.90;99.90;;;;;;5018559;28;20232;-67
2022/06/11 02:30:20;;;;;;;10.07;8.50;;;17.80;99.90;;;;;;5012217;28;20231;-67
2022/06/11 02:32:50;;;;;;;9.83;8.80;;;17.70;99.90;;;;;;5011639;28;20231;-67
2022/06/11 02:35:28;;;;;;;10.03;8.93;;;17.80;99.90;;;;;;5013413;28;20230;-67
2022/06/11 02:37:57;;;;;;;10.20;8.77;;;17.70;99.90;;;;;;5007477;28;20254;-67
2022/06/11 02:40:28;;;;;;;8.90;8.00;;;17.80;99.90;;;;;;5013608;28;20232;-67
2022/06/11 02:42:57;;;;;;;10.83;8.37;;;17.80;99.90;;;;;;5014943;28;20230;-67
2022/06/11 02:45:25;;;;;;;9.93;8.47;;;17.80;99.90;;;;;;5013188;28;20233;-67
2022/06/11 02:47:55;;;;;;;9.63;8.27;;;17.80;99.90;;;;;;5013642;28;20235;-67
2022/06/11 02:50:27;;;;;;;10.83;9.83;;;17.70;99.90;;;;;;5013256;28;20226;-67
2022/06/11 02:52:55;;;;;;;10.20;8.63;;;17.70;99.90;;;;;;5012891;28;20237;-67
2022/06/11 02:55:23;;;;;;;10.20;8.10;;;17.70;99.90;;;;;;5011239;28;20234;-67
2022/06/11 02:57:52;;;;;;;9.63;8.40;;;17.80;99.90;;;;;;5018059;28;20231;-67
2022/06/11 03:00:24;;;;;;;11.13;8.60;;;17.80;99.90;;;;;;5013337;28;20663;-67
2022/06/11 03:02:54;;;;;;;13.60;10.47;;;17.70;99.90;;;;;;5016098;28;20321;-67
2022/06/11 03:05:28;;;;;;;10.93;9.00;;;17.70;99.90;;;;;;5011918;28;20230;-66
2022/06/11 03:07:57;;;;;;;10.00;9.00;;;17.70;99.90;;;;;;5007247;28;20222;-66
2022/06/11 03:10:27;;;;;;;11.53;9.83;;;17.70;99.90;;;;;;5010709;28;20241;-66
2022/06/11 03:12:56;;;;;;;10.93;9.20;;;17.70;99.90;;;;;;5014241;28;20254;-66
2022/06/11 03:15:26;;;;;;;16.37;9.73;;;17.60;99.90;;;;;;5012704;28;20240;-66
2022/06/11 03:17:57;;;;;;;11.37;9.37;;;17.60;99.90;;;;;;5013009;28;20282;-66
2022/06/11 03:20:28;;;;;;;10.17;9.17;;;17.50;99.90;;;;;;5013010;28;20289;-67
2022/06/11 03:22:57;;;;;;;10.40;9.30;;;17.40;99.90;;;;;;5012192;28;20230;-67
2022/06/11 03:25:26;;;;;;;10.47;9.37;;;17.40;99.90;;;;;;5012587;28;20611;-67
2022/06/11 03:27:54;;;;;;;11.53;9.80;;;17.30;99.90;;;;;;5016292;28;20730;-67
2022/06/11 03:30:23;;;;;;;11.67;9.57;;;17.20;99.90;;;;;;5012213;28;20233;-67
2022/06/11 03:32:51;;;;;;;11.27;10.17;;;17.30;99.90;;;;;;5012279;28;20724;-67
2022/06/11 03:35:20;;;;;;;12.63;10.07;;;17.30;99.90;;;;;;5012975;28;20232;-67
2022/06/11 03:37:48;;;;;;;9.63;8.73;;;17.20;99.90;;;;;;5008261;28;20231;-67
2022/06/11 03:40:17;;;;;;;10.07;8.47;;;17.20;99.90;;;;;;5012805;28;20685;-67
2022/06/11 03:42:51;;;;;;;11.33;9.67;;;17.10;99.90;;;;;;5014970;28;20225;-67
2022/06/11 03:45:21;;;;;;;11.00;9.80;;;17.10;99.90;;;;;;5024630;28;20281;-67
2022/06/11 03:47:49;;;;;;;9.67;8.77;;;17.20;99.90;;;;;;5012650;28;20232;-67
2022/06/11 03:50:22;;;;;;;10.33;9.43;;;17.20;99.90;;;;;;5012065;28;20701;-67
2022/06/11 03:52:51;;;;;;;11.57;9.23;;;17.10;99.90;;;;;;5014991;28;20299;-67
2022/06/11 03:55:20;;;;;;;10.33;9.43;;;17.20;99.90;;;;;;5012526;28;20720;-67
2022/06/11 03:57:49;;;;;;;12.07;10.50;;;17.20;99.90;;;;;;5017354;28;20261;-67
2022/06/11 04:01:14;;;;;;;12.17;9.63;;;17.20;99.90;;;;;;5012493;28;20229;-67
2022/06/11 04:03:09;;;;;;;11.33;9.40;;;17.20;99.90;;;;;;5011753;28;20286;-67
2022/06/11 04:05:41;;;;;;;10.77;9.27;;;17.20;99.90;;;;;;5016361;28;20228;-67
2022/06/11 04:08:10;;;;;;;10.93;9.57;;;17.20;99.90;;;;;;5015390;28;20702;-67
2022/06/11 04:10:38;;;;;;;10.60;9.50;;;17.30;99.90;;;;;;5024103;28;20238;-67
2022/06/11 04:13:08;;;;;;;11.23;8.70;;;17.30;99.90;;;;;;5025129;28;20224;-67
2022/06/11 04:15:39;;;;;;;10.70;9.80;;;17.40;99.90;;;;;;5026265;28;20236;-67
2022/06/11 04:18:08;;;;;;;10.00;9.10;;;17.60;99.90;;;;;;5025065;28;20222;-67
2022/06/11 04:20:36;;;;;;;9.17;8.27;;;17.60;99.90;;;;;;5041168;28;20630;-67
2022/06/11 04:23:06;;;;;;;10.10;8.87;;;17.60;99.90;;;;;;5022809;28;20218;-67
2022/06/11 04:25:34;;;;;;;12.77;9.57;;;17.60;99.90;;;;;;5020325;28;20245;-67
2022/06/11 04:28:03;;;;;;;11.33;10.23;;;17.80;99.90;;;;;;5028775;28;20226;-67
2022/06/11 04:30:31;;;;;;;11.17;9.33;;;17.90;99.90;;;;;;5026892;28;20218;-68
2022/06/11 04:32:59;;;;;;;10.10;9.10;;;17.90;99.90;;;;;;5023257;28;20263;-67
2022/06/11 04:35:27;;;;;;;9.37;8.37;;;17.90;99.90;;;;;;5024768;28;20225;-67
2022/06/11 04:37:55;;;;;;;11.60;10.40;;;17.90;99.90;;;;;;5026204;28;20223;-67
2022/06/11 04:40:25;;;;;;;10.03;9.10;;;17.90;99.90;;;;;;5022127;28;20719;-67
2022/06/11 04:42:53;;;;;;;11.30;9.20;;;17.90;99.90;;;;;;5024852;28;20764;-67
2022/06/11 04:45:21;;;;;;;10.87;9.73;;;17.90;99.90;;;;;;5021253;28;20222;-67
2022/06/11 04:47:50;;;;;;;11.20;9.10;;;18.10;99.90;;;;;;5024993;28;20231;-67
2022/06/11 04:50:21;;;;;;;11.80;10.60;;;18.10;99.90;;;;;;5024525;28;20222;-67
2022/06/11 04:52:49;;;;;;;10.00;8.93;;;18.20;99.90;;;;;;5025117;28;20259;-68
2022/06/11 04:55:18;;;;;;;11.60;9.60;;;18.40;99.90;;;;;;5021335;28;20944;-68
2022/06/11 04:57:47;;;;;;;10.37;9.30;;;18.60;99.90;;;;;;5027020;28;20230;-68
2022/06/11 05:00:19;;;;;;;11.40;9.63;;;18.80;99.90;;;;;;5018649;28;20310;-67
2022/06/11 05:02:48;;;;;;;11.10;8.37;;;19.00;99.90;;;;;;5014868;28;20306;-67
2022/06/11 05:05:17;;;;;;;12.10;9.30;;;19.20;99.90;;;;;;5016478;28;20242;-67
2022/06/11 05:07:46;;;;;;;10.90;9.80;;;19.40;99.90;;;;;;5015296;28;20232;-68
2022/06/11 05:10:18;;;;;;;12.03;8.87;;;19.60;99.90;;;;;;5014938;28;20680;-68
2022/06/11 05:12:47;;;;;;;14.07;9.50;;;19.80;99.90;;;;;;5015042;28;20236;-67
2022/06/11 05:15:15;;;;;;;10.23;9.17;;;19.90;99.90;;;;;;5014440;28;20622;-68
2022/06/11 05:17:44;;;;;;;11.07;9.57;;;20.00;99.90;;;;;;5014045;28;20298;-67
2022/06/11 05:20:14;;;;;;;11.07;9.53;;;20.10;99.90;;;;;;5021039;28;20235;-67
2022/06/11 05:22:45;;;;;;;11.23;9.97;;;20.30;99.90;;;;;;5015010;28;20281;-67
2022/06/11 05:25:15;;;;;;;11.00;8.80;;;20.50;99.90;;;;;;5013309;28;20247;-67
2022/06/11 05:27:46;;;;;;;10.23;8.30;;;20.60;99.90;;;;;;5019576;28;20233;-67
2022/06/11 05:30:20;;;;;;;12.40;8.53;;;20.90;99.90;;;;;;5014850;28;20251;-67
2022/06/11 05:32:49;;;;;;;12.00;8.90;;;21.10;99.90;;;;;;5014222;28;20763;-67
2022/06/11 05:35:20;;;;;;;11.40;7.67;;;21.30;99.90;;;;;;5013579;28;20235;-67
2022/06/11 05:37:50;;;;;;;9.57;7.67;;;21.30;99.90;;;;;;5008456;28;20282;-67
2022/06/11 05:40:22;;;;;;;9.17;8.23;;;21.30;99.90;;;;;;5014378;28;20224;-67
2022/06/11 05:42:50;;;;;;;10.80;7.53;;;21.20;99.90;;;;;;5018406;28;20274;-67
2022/06/11 05:45:23;;;;;;;10.90;7.87;;;21.10;99.90;;;;;;5020220;28;20220;-67
2022/06/11 05:47:53;;;;;;;8.20;7.37;;;21.00;99.90;;;;;;5021586;28;20259;-67
2022/06/11 05:50:25;;;;;;;10.73;7.23;;;20.90;99.90;;;;;;5023577;28;20231;-67
2022/06/11 05:52:55;;;;;;;7.93;6.00;;;20.70;99.90;;;;;;5020720;28;20290;-67
2022/06/11 05:55:26;;;;;;;8.77;6.60;;;20.60;99.90;;;;;;5020094;28;20596;-67
2022/06/11 05:57:59;;;;;;;10.30;5.67;;;20.50;99.90;;;;;;5022675;28;20226;-67
2022/06/11 06:00:30;;;;;;;7.57;5.83;;;20.60;99.90;;;;;;5019812;28;20232;-67
2022/06/11 06:02:58;;;;;;;8.27;5.53;;;20.70;99.90;;;;;;5012392;28;20585;-67
2022/06/11 06:05:29;;;;;;;7.90;4.87;;;20.60;99.90;;;;;;5013393;28;20356;-67
2022/06/11 06:07:57;;;;;;;8.70;5.57;;;20.80;99.90;;;;;;5013929;28;20283;-67
2022/06/11 06:10:25;;;;;;;7.83;5.33;;;21.20;99.90;;;;;;5022845;28;20221;-67
2022/06/11 06:12:54;;;;;;;7.30;5.33;;;21.70;99.90;;;;;;5024398;28;20231;-67
2022/06/11 06:15:26;;;;;;;7.23;4.93;;;22.10;99.90;;;;;;5012281;28;20233;-67
2022/06/11 06:17:56;;;;;;;7.53;4.80;;;22.10;99.90;;;;;;5013763;28;20255;-67
2022/06/11 06:20:25;;;;;;;8.80;4.80;;;21.90;99.90;;;;;;5012456;28;20229;-67
2022/06/11 06:22:53;;;;;;;8.47;4.40;;;21.70;99.90;;;;;;5019578;28;20311;-67
2022/06/11 06:25:22;;;;;;;7.97;4.67;;;21.60;99.90;;;;;;5012115;28;20258;-67
2022/06/11 06:27:50;;;;;;;6.97;4.70;;;21.50;99.90;;;;;;5022822;28;20290;-66
2022/06/11 06:30:18;;;;;;;7.90;4.43;;;21.40;99.90;;;;;;5018307;28;20230;-66
2022/06/11 06:32:47;;;;;;;8.03;4.57;;;21.30;99.90;;;;;;5009219;28;20227;-66
2022/06/11 06:35:16;;;;;;;8.50;4.27;;;21.20;99.90;;;;;;5020155;28;20237;-66
2022/06/11 06:37:44;;;;;;;7.00;4.00;;;21.50;99.90;;;;;;5023176;28;20638;-66
2022/06/11 06:40:13;;;;;;;7.83;4.33;;;22.00;99.90;;;;;;5020710;28;20704;-66
2022/06/11 06:42:41;;;;;;;7.60;4.57;;;22.40;99.90;;;;;;5012566;28;20328;-66
2022/06/11 06:45:10;;;;;;;7.20;4.07;;;22.70;99.90;;;;;;5012079;28;20236;-66
2022/06/11 06:47:38;;;;;;;6.67;4.07;;;22.80;99.90;;;;;;5013514;28;20229;-66
2022/06/11 06:50:07;;;;;;;9.60;5.00;;;22.80;99.90;;;;;;5013372;28;20221;-66
2022/06/11 06:52:36;;;;;;;6.97;4.70;;;22.80;99.90;;;;;;5012695;28;20221;-66
2022/06/11 06:55:05;;;;;;;5.93;4.17;;;22.90;99.90;;;;;;5013261;28;20260;-66
2022/06/11 06:57:33;;;;;;;8.53;4.43;;;23.10;99.90;;;;;;5018173;28;20714;-66
2022/06/11 07:00:03;;;;;;;9.53;4.00;;;23.30;99.90;;;;;;5013231;28;20324;-66
2022/06/11 07:02:31;;;;;;;6.90;4.10;;;23.30;99.90;;;;;;5012833;28;20230;-66
2022/06/11 07:04:59;;;;;;;6.40;3.80;;;23.50;99.90;;;;;;5013877;28;20324;-66
2022/06/11 07:07:28;;;;;;;8.80;4.00;;;23.80;99.90;;;;;;5013522;28;20272;-66
2022/06/11 07:09:58;;;;;;;6.17;3.30;;;24.00;99.90;;;;;;5014642;28;20262;-66
2022/06/11 07:12:26;;;;;;;7.73;3.90;;;24.40;99.90;;;;;;5022340;28;20688;-66
2022/06/11 07:14:54;;;;;;;6.17;3.20;;;24.80;99.90;;;;;;5017393;28;20230;-66
2022/06/11 07:17:23;;;;;;;5.97;3.30;;;25.00;99.90;;;;;;5014836;28;20221;-66
2022/06/11 07:19:56;;;;;;;6.97;3.17;;;25.00;99.90;;;;;;5012610;28;20233;-66
2022/06/11 07:22:30;;;;;;;6.20;2.77;;;25.20;99.90;;;;;;5015279;28;20586;-66
2022/06/11 07:25:02;;;;;;;5.00;3.00;;;25.20;99.90;;;;;;5015372;28;20593;-66
2022/06/11 07:27:34;;;;;;;6.33;3.10;;;25.00;99.90;;;;;;5023945;28;20551;-66
2022/06/11 07:30:08;;;;;;;7.97;3.33;;;24.90;99.90;;;;;;5021663;28;20364;-66
2022/06/11 07:32:37;;;;;;;7.63;3.70;;;25.30;99.90;;;;;;5017862;28;20703;-66
2022/06/11 07:35:12;;;;;;;6.73;3.40;;;25.20;99.90;;;;;;5019373;28;20223;-66
2022/06/11 07:37:41;;;;;;;5.97;3.40;;;25.00;99.90;;;;;;5016552;28;20225;-66
2022/06/11 07:40:12;;;;;;;7.37;4.00;;;25.10;99.90;;;;;;5012545;28;20222;-66
2022/06/11 07:42:40;;;;;;;9.17;4.97;;;25.10;99.90;;;;;;5016630;28;20241;-67
2022/06/11 07:45:10;;;;;;;9.93;5.53;;;24.80;99.90;;;;;;5018811;28;20303;-66
2022/06/11 07:47:56;;;;;;;12.57;6.13;;;25.00;99.90;;;;;;5016537;28;20232;-66
2022/06/11 07:50:27;;;;;;;7.40;4.90;;;25.20;99.90;;;;;;5016529;28;20284;-66
2022/06/11 07:52:57;;;;;;;9.57;4.97;;;25.50;99.90;;;;;;5022548;28;20231;-66
2022/06/11 07:55:27;;;;;;;6.30;4.10;;;26.20;99.90;;;;;;5015023;28;20309;-66
2022/06/11 07:57:55;;;;;;;6.40;3.80;;;26.80;99.90;;;;;;5017393;28;20259;-66
2022/06/11 08:00:25;;;;;;;7.70;4.40;;;27.10;99.90;;;;;;5016285;28;20230;-66
2022/06/11 08:02:53;;;;;;;9.53;4.33;;;27.00;99.90;;;;;;5020599;28;20267;-67
2022/06/11 08:05:22;;;;;;;9.37;5.30;;;26.90;99.90;;;;;;5023225;28;20270;-67
2022/06/11 08:07:52;;;;;;;9.03;5.17;;;27.10;99.90;;;;;;5016126;28;20232;-66
2022/06/11 08:10:22;;;;;;;7.47;4.93;;;27.30;99.90;;;;;;5016085;28;20236;-67
2022/06/11 08:12:51;;;;;;;9.00;4.50;;;27.10;99.90;;;;;;5019023;28;20232;-67
2022/06/11 08:15:20;;;;;;;7.80;4.23;;;27.10;99.90;;;;;;5022054;28;20279;-67
2022/06/11 08:17:48;;;;;;;7.20;3.23;;;26.90;99.90;;;;;;5016042;28;20244;-67
2022/06/11 08:20:20;;;;;;;7.13;2.90;;;25.60;99.90;;;;;;5016278;28;20628;-67
2022/06/11 08:22:49;;;;;;;5.50;2.10;;;25.00;99.90;;;;;;5015868;28;20232;-67
2022/06/11 08:25:17;;;;;;;5.53;1.80;;;25.30;99.90;;;;;;5019930;28;20666;-67
2022/06/11 08:27:46;;;;;;;5.40;2.43;;;25.80;99.90;;;;;;5023668;28;20716;-67
2022/06/11 08:30:18;;;;;;;4.63;2.23;;;26.10;99.90;;;;;;5025577;28;20788;-67
2022/06/11 08:32:47;;;;;;;5.33;2.67;;;25.60;99.90;;;;;;5024473;28;20733;-67
2022/06/11 08:35:18;;;;;;;3.73;2.10;;;25.00;99.90;;;;;;5019612;28;20222;-67
2022/06/11 08:37:46;;;;;;;4.50;2.13;;;24.60;99.90;;;;;;5021611;28;20226;-67
2022/06/11 08:40:20;;;;;;;5.37;2.20;;;25.00;99.90;;;;;;5009042;28;20224;-67
2022/06/11 08:42:56;;;;;;;4.67;1.90;;;25.40;99.90;;;;;;5014180;28;20622;-67
2022/06/11 08:45:35;;;;;;;4.57;1.97;;;25.90;99.90;;;;;;5023432;28;20237;-67
2022/06/11 08:48:13;;;;;;;3.17;1.97;;;26.30;99.90;;;;;;5023559;28;20571;-67
2022/06/11 08:50:49;;;;;;;4.57;1.80;;;26.50;99.90;;;;;;5022600;28;20287;-67
2022/06/11 08:53:20;;;;;;;6.63;2.63;;;26.70;99.90;;;;;;5019894;28;21144;-67
2022/06/11 08:55:48;;;;;;;3.80;1.90;;;26.80;99.90;;;;;;5023179;28;20317;-67
2022/06/11 08:58:29;;;;;;;6.40;2.00;;;26.90;99.90;;;;;;5024525;28;20224;-67
2022/06/11 09:01:06;;;;;;;3.63;2.00;;;27.20;99.90;;;;;;5022324;28;20715;-67
2022/06/11 09:03:52;;;;;;;4.70;2.20;;;27.20;99.90;;;;;;5018525;28;20315;-67
2022/06/11 09:06:54;;;;;;;3.67;1.93;;;27.30;99.90;;;;;;5022077;28;20907;-67
2022/06/11 09:09:40;;;;;;;5.50;2.10;;;27.30;99.90;;;;;;5016445;28;20240;-67
2022/06/11 09:12:38;;;;;;;4.83;2.27;;;27.50;99.90;;;;;;5014993;28;20243;-67
2022/06/11 09:15:19;;;;;;;5.27;2.33;;;27.00;99.90;;;;;;5010378;28;20248;-67
2022/06/11 09:18:24;;;;;;;4.50;2.40;;;27.00;99.90;;;;;;5012422;28;20600;-67
2022/06/11 09:21:01;;;;;;;3.43;2.33;;;27.30;99.90;;;;;;5012578;28;20243;-67
2022/06/11 09:24:09;;;;;;;3.37;2.10;;;26.90;99.90;;;;;;5012036;28;20329;-67
2022/06/11 09:26:44;;;;;;;6.10;2.47;;;26.50;99.90;;;;;;5014104;28;20223;-67
2022/06/11 09:29:16;;;;;;;5.80;2.63;;;26.20;99.90;;;;;;5013750;28;20303;-67
2022/06/11 09:31:48;;;;;;;4.43;2.50;;;26.50;99.90;;;;;;5013904;28;20232;-67
2022/06/11 09:34:24;;;;;;;6.30;2.60;;;27.10;99.90;;;;;;5013806;28;20268;-66
2022/06/11 09:37:00;;;;;;;5.13;2.30;;;27.30;99.90;;;;;;5013574;28;20801;-68
2022/06/11 09:39:38;;;;;;;5.47;2.40;;;27.20;99.90;;;;;;5014374;28;20327;-67
2022/06/11 09:42:39;;;;;;;8.03;2.63;;;27.50;99.90;;;;;;5014474;28;20227;-67
2022/06/11 09:45:17;;;;;;;6.53;2.60;;;27.80;99.90;;;;;;5002099;28;20316;-67
2022/06/11 09:48:00;;;;;;;5.83;2.40;;;27.90;99.90;;;;;;5004854;28;20731;-67
2022/06/11 09:50:36;;;;;;;4.97;2.40;;;28.10;99.90;;;;;;5007483;28;20232;-67
2022/06/11 09:53:29;;;;;;;5.53;2.23;;;28.70;99.90;;;;;;5007440;28;20333;-67
2022/06/11 09:56:03;;;;;;;8.30;2.47;;;28.20;99.90;;;;;;5003789;28;20284;-67
2022/06/11 09:58:41;;;;;;;7.43;2.50;;;28.20;99.90;;;;;;5008917;28;20237;-67
2022/06/11 10:01:15;;;;;;;9.03;2.63;;;28.10;99.90;;;;;;5006787;28;20251;-67
2022/06/11 10:03:51;;;;;;;10.23;2.93;;;27.70;99.90;;;;;;5000375;28;20248;-67
2022/06/11 10:06:25;;;;;;;10.60;2.90;;;27.80;99.90;;;;;;5004751;28;20229;-67
2022/06/11 10:08:59;;;;;;;7.33;2.67;;;27.80;99.90;;;;;;5007035;28;20801;-67
2022/06/11 10:11:35;;;;;;;8.97;3.00;;;27.90;99.90;;;;;;5006686;28;20275;-67
2022/06/11 10:16:58;;;;;;;8.63;2.77;;;28.50;99.90;;;;;;5006806;28;20298;-67
2022/06/11 10:19:31;;;;;;;8.60;2.97;;;28.10;99.90;;;;;;5008265;28;20327;-67
2022/06/11 10:22:07;;;;;;;10.60;2.93;;;27.50;99.90;;;;;;5008316;28;20287;-67
2022/06/11 10:24:39;;;;;;;7.97;2.90;;;27.40;99.90;;;;;;5000291;28;20661;-67
2022/06/11 10:27:12;;;;;;;9.20;2.97;;;27.90;99.90;;;;;;5004739;28;20994;-67
2022/06/11 10:29:46;;;;;;;10.03;3.10;;;28.60;99.90;;;;;;5003056;28;20303;-67
2022/06/11 10:32:18;;;;;;;8.73;3.40;;;29.30;99.90;;;;;;5010526;28;20237;-66
2022/06/11 10:34:54;;;;;;;10.00;2.47;;;29.10;99.90;;;;;;5009258;28;20225;-66
2022/06/11 10:37:30;;;;;;;8.70;2.97;;;28.80;99.90;;;;;;5013212;28;20315;-66
2022/06/11 10:40:08;;;;;;;14.03;3.20;;;28.30;99.90;;;;;;5019447;28;20634;-66
2022/06/11 10:42:41;;;;;;;8.27;2.90;;;28.50;99.90;;;;;;5013257;28;20229;-66
2022/06/11 10:45:13;;;;;;;8.57;2.20;;;29.00;99.90;;;;;;5016067;28;20331;-66
2022/06/11 10:47:46;;;;;;;10.20;2.63;;;29.30;99.90;;;;;;5006596;28;20232;-66
2022/06/11 10:50:19;;;;;;;10.83;2.87;;;29.10;99.90;;;;;;5012826;28;20840;-66
2022/06/11 10:52:54;;;;;;;9.07;2.77;;;29.50;99.90;;;;;;5004511;28;20324;-66
2022/06/11 10:55:33;;;;;;;8.90;3.00;;;29.20;99.90;;;;;;5006939;28;20283;-66
2022/06/11 10:58:09;;;;;;;10.00;2.60;;;29.30;99.90;;;;;;5009122;28;20229;-66
2022/06/11 11:00:45;;;;;;;10.47;3.17;;;29.60;99.90;;;;;;5010505;28;20225;-66
2022/06/11 11:03:25;;;;;;;10.33;3.27;;;30.00;99.90;;;;;;5009294;28;20228;-66
2022/06/11 11:06:00;;;;;;;11.50;3.07;;;30.10;99.90;;;;;;5006575;28;20221;-66
2022/06/11 11:08:30;;;;;;;10.10;2.90;;;29.40;99.90;;;;;;5009016;28;20287;-66
2022/06/11 11:11:00;;;;;;;10.03;3.20;;;28.70;99.90;;;;;;5009212;28;20236;-66
2022/06/11 11:13:35;;;;;;;9.07;2.67;;;28.40;99.90;;;;;;5005382;28;20236;-66
2022/06/11 11:16:21;;;;;;;10.00;2.87;;;28.40;99.90;;;;;;5005722;28;20252;-67
2022/06/11 11:19:02;;;;;;;12.90;3.20;;;29.10;99.90;;;;;;5010383;28;20251;-68
2022/06/11 11:21:37;;;;;;;9.70;2.50;;;29.40;99.90;;;;;;5003512;28;20233;-68
2022/06/11 11:24:12;;;;;;;7.90;2.80;;;29.20;99.90;;;;;;5012263;28;20239;-67
2022/06/11 11:26:53;;;;;;;8.93;3.30;;;28.50;99.90;;;;;;5010648;28;20236;-67
2022/06/11 11:29:25;;;;;;;9.73;2.93;;;28.20;99.90;;;;;;5007229;28;20237;-67
2022/06/11 11:31:57;;;;;;;9.97;2.80;;;28.80;99.90;;;;;;5012349;28;20236;-67
2022/06/11 11:34:27;;;;;;;9.73;2.57;;;28.70;99.90;;;;;;5010175;28;20228;-67
2022/06/11 11:37:19;;;;;;;9.37;2.90;;;28.10;99.90;;;;;;5012497;28;20240;-67
2022/06/11 11:39:52;;;;;;;10.30;2.93;;;27.30;99.90;;;;;;5012544;28;20232;-67
2022/06/11 11:42:23;;;;;;;10.03;2.90;;;26.30;99.90;;;;;;5012615;28;20637;-67
2022/06/11 11:44:57;;;;;;;9.53;3.00;;;26.60;99.90;;;;;;5021478;28;20236;-67
2022/06/11 11:47:30;;;;;;;10.07;3.00;;;26.60;99.90;;;;;;5014258;28;20318;-68
2022/06/11 11:50:07;;;;;;;10.70;2.43;;;27.30;99.90;;;;;;5006811;28;20766;-67
2022/06/11 11:52:41;;;;;;;10.43;3.10;;;27.70;99.90;;;;;;5006121;28;20232;-67
2022/06/11 11:55:20;;;;;;;10.90;3.17;;;27.60;99.90;;;;;;5002134;28;20253;-67
2022/06/11 11:57:56;;;;;;;9.17;2.80;;;27.80;99.90;;;;;;5008888;28;20266;-67
2022/06/11 12:00:28;;;;;;;8.40;3.00;;;28.10;99.90;;;;;;5004176;28;20228;-67
2022/06/11 12:03:01;;;;;;;8.33;2.53;;;28.40;99.90;;;;;;5007876;28;20243;-67
2022/06/11 12:05:32;;;;;;;9.67;3.20;;;28.50;99.90;;;;;;5006829;28;20233;-67
2022/06/11 12:08:01;;;;;;;8.93;2.67;;;28.50;99.90;;;;;;5009639;28;20308;-67
2022/06/11 12:10:37;;;;;;;10.97;2.80;;;28.20;99.90;;;;;;5011875;28;20232;-67
2022/06/11 12:13:22;;;;;;;10.67;3.03;;;28.30;99.90;;;;;;5011342;28;20234;-67
2022/06/11 12:15:54;;;;;;;10.53;3.27;;;28.20;99.90;;;;;;5011194;28;20320;-67
2022/06/11 12:18:28;;;;;;;13.90;3.10;;;28.10;99.90;;;;;;5011852;28;20286;-67
2022/06/11 12:21:01;;;;;;;9.30;2.77;;;28.20;99.90;;;;;;5009288;28;20271;-67
2022/06/11 12:23:35;;;;;;;10.13;2.93;;;28.50;99.90;;;;;;5009717;28;20788;-68
2022/06/11 12:26:07;;;;;;;11.13;3.10;;;28.50;99.90;;;;;;5010682;28;20312;-67
2022/06/11 12:28:39;;;;;;;9.73;2.70;;;28.40;99.90;;;;;;5013831;28;20229;-67
2022/06/11 12:31:15;;;;;;;12.43;3.00;;;28.20;99.90;;;;;;5015457;28;20239;-67
2022/06/11 12:33:45;;;;;;;8.23;2.40;;;28.10;99.90;;;;;;5012087;28;20697;-67
2022/06/11 12:36:23;;;;;;;10.17;2.70;;;28.20;99.90;;;;;;5015209;28;20230;-67
2022/06/11 12:38:57;;;;;;;6.80;2.27;;;28.20;99.90;;;;;;5012346;28;20335;-67
2022/06/11 12:41:40;;;;;;;9.30;2.97;;;27.90;99.90;;;;;;5014691;28;20218;-67
2022/06/11 12:44:33;;;;;;;7.03;2.57;;;27.40;99.90;;;;;;5009696;28;20723;-67
2022/06/11 12:47:14;;;;;;;9.10;3.13;;;27.20;99.90;;;;;;5014902;28;20262;-67
2022/06/11 12:49:50;;;;;;;6.67;2.10;;;27.30;99.90;;;;;;5014638;28;20294;-67
2022/06/11 12:52:28;;;;;;;7.40;2.53;;;27.40;99.90;;;;;;5013607;28;20355;-65
2022/06/11 12:55:25;;;;;;;10.17;2.50;;;27.60;99.90;;;;;;5008169;28;20264;-67
2022/06/11 12:58:04;;;;;;;7.13;2.43;;;27.50;99.90;;;;;;5013349;28;20740;-67
2022/06/11 13:00:43;;;;;;;7.40;2.30;;;27.50;99.90;;;;;;5014977;28;20738;-67
2022/06/11 13:03:44;;;;;;;7.83;2.40;;;27.00;99.90;;;;;;5008868;28;20929;-67
2022/06/11 13:06:27;;;;;;;11.87;3.00;;;26.50;99.90;;;;;;5010145;28;20230;-67
2022/06/11 13:09:08;;;;;;;7.73;2.60;;;26.50;99.90;;;;;;5006493;28;20287;-68
2022/06/11 13:11:46;;;;;;;8.33;2.50;;;26.40;99.90;;;;;;5007013;28;20235;-68
2022/06/11 13:14:56;;;;;;;8.50;2.70;;;26.20;99.90;;;;;;5000142;28;20246;-68
2022/06/11 13:17:43;;;;;;;9.30;2.60;;;26.50;99.90;;;;;;5006180;28;21250;-67
2022/06/11 13:20:21;;;;;;;11.40;2.97;;;26.60;99.90;;;;;;5001524;28;20243;-68